Time;durP1;ratioP1;P1;durP2;ratioP2;P2;SDS_P1;SDS_P2;PMS_P1;PMS_P2;Temp;Humidity;BMP_temperature;BMP_pressure;BME280_temperature;BME280_humidity;BME280_pressure;Samples;Min_cycle;Max_cycle;Signal;HPM_P1;HPM_P2
2023/06/09 00:01:36;;;;;;;;;21.40;20.00;;;;;21.96;84.98;98557.88;7696721;22;97506;-63
2023/06/09 00:04:41;;;;;;;;;21.40;18.40;;;;;21.94;85.56;98549.13;7697095;22;96489;-63
2023/06/09 00:07:45;;;;;;;;;20.20;19.20;;;;;21.90;85.61;98548.06;7697211;22;96387;-63
2023/06/09 00:10:48;;;;;;;;;20.00;19.00;;;;;21.91;85.57;98543.41;7697150;22;97054;-63
2023/06/09 00:13:52;;;;;;;;;20.00;18.40;;;;;21.89;86.08;98543.69;7697467;22;96822;-63
2023/06/09 00:16:56;;;;;;;;;21.20;19.80;;;;;21.89;86.17;98545.66;7693636;22;97461;-63
2023/06/09 00:20:03;;;;;;;;;22.40;21.00;;;;;21.86;86.55;98533.31;7697855;22;96752;-63
2023/06/09 00:23:07;;;;;;;;;19.80;17.80;;;;;21.75;86.56;98514.59;7696808;22;96683;-63
2023/06/09 00:26:11;;;;;;;;;21.50;19.50;;;;;21.87;86.84;98537.72;7697165;22;96177;-63
2023/06/09 00:29:17;;;;;;;;;21.40;20.40;;;;;21.88;86.52;98533.03;7696415;22;96211;-63
2023/06/09 00:32:21;;;;;;;;;23.00;21.00;;;;;21.87;87.45;98539.63;7696621;22;97121;-63
2023/06/09 00:35:26;;;;;;;;;24.80;21.00;;;;;21.86;87.78;98535.25;7644064;22;96637;-63
2023/06/09 00:38:30;;;;;;;;;29.00;22.00;;;;;21.88;87.87;98542.09;7669749;22;96357;-63
2023/06/09 00:41:36;;;;;;;;;25.75;23.75;;;;;21.74;89.31;98538.50;7671561;22;96509;-64
2023/06/09 00:44:39;;;;;;;;;22.00;19.00;;;;;21.81;89.09;98549.06;7698567;22;96184;-63
2023/06/09 00:47:43;;;;;;;;;24.00;22.60;;;;;21.84;89.19;98538.31;7698627;22;96715;-63
2023/06/09 00:50:48;;;;;;;;;25.00;22.60;;;;;21.85;88.95;98536.38;7671456;22;96467;-63
2023/06/09 00:53:52;;;;;;;;;27.60;24.60;;;;;21.89;88.89;98538.19;7698920;22;97070;-62
2023/06/09 00:56:56;;;;;;;;;23.80;21.80;;;;;21.87;89.15;98537.72;7696890;22;97065;-63
2023/06/09 01:00:00;;;;;;;;;24.00;22.00;;;;;21.89;88.92;98532.72;7671691;22;96338;-63
2023/06/09 01:03:04;;;;;;;;;25.25;22.75;;;;;21.88;89.29;98544.00;7695588;22;97084;-61
2023/06/09 01:06:14;;;;;;;;;22.60;21.00;;;;;21.92;89.09;98539.53;7669616;22;96704;-62
2023/06/09 01:09:21;;;;;;;;;24.40;22.00;;;;;21.91;89.29;98535.97;7698923;22;96263;-62
2023/06/09 01:12:35;;;;;;;;;23.00;22.00;;;;;21.90;89.03;98530.78;7670134;22;96636;-62
2023/06/09 01:15:44;;;;;;;;;26.25;22.75;;;;;21.90;89.41;98528.84;7698955;22;96274;-61
2023/06/09 01:18:50;;;;;;;;;25.60;22.80;;;;;21.87;89.83;98521.25;7670717;22;97765;-61
2023/06/09 01:21:58;;;;;;;;;26.60;22.60;;;;;21.87;89.86;98526.72;7697389;22;96183;-61
2023/06/09 01:25:13;;;;;;;;;25.20;23.00;;;;;21.89;90.53;98520.94;7668902;22;96201;-62
2023/06/09 01:28:21;;;;;;;;;27.20;22.00;;;;;21.84;89.87;98516.38;7695032;22;96589;-61
2023/06/09 01:31:25;;;;;;;;;26.00;24.00;;;;;21.92;90.13;98520.31;7667913;22;98370;-61
2023/06/09 01:34:29;;;;;;;;;26.00;24.00;;;;;21.92;90.00;98517.59;7696085;22;97458;-62
2023/06/09 01:37:33;;;;;;;;;26.33;22.67;;;;;21.90;90.10;98508.81;7670603;22;96310;-61
2023/06/09 01:40:36;;;;;;;;;28.00;24.00;;;;;21.90;90.17;98509.66;7698420;22;96199;-61
2023/06/09 01:43:41;;;;;;;;;27.40;24.00;;;;;21.88;90.63;98500.91;7698211;22;96235;-62
2023/06/09 01:46:45;;;;;;;;;26.00;23.60;;;;;21.85;91.24;98496.03;7698389;22;96839;-62
2023/06/09 01:49:56;;;;;;;;;27.20;21.80;;;;;21.91;90.82;98499.47;7698654;22;96161;-61
2023/06/09 01:53:05;;;;;;;;;23.00;20.50;;;;;21.96;90.45;98496.66;7670107;22;98438;-62
2023/06/09 01:56:13;;;;;;;;;31.80;27.00;;;;;21.86;90.78;98485.84;7698402;22;96220;-61
2023/06/09 01:59:23;;;;;;;;;24.40;23.00;;;;;21.92;91.35;98512.09;7645858;22;96677;-61
2023/06/09 02:02:29;;;;;;;;;26.60;25.40;;;;;21.86;91.67;98508.63;7679137;22;96573;-62
2023/06/09 02:05:35;;;;;;;;;26.60;24.00;;;;;21.74;92.15;98494.63;7696981;22;96380;-61
2023/06/09 02:08:39;;;;;;;;;26.60;24.20;;;;;21.86;92.10;98499.59;7697798;22;95876;-61
2023/06/09 02:11:43;;;;;;;;;27.00;24.00;;;;;21.79;92.43;98479.97;7696949;22;96556;-61
2023/06/09 02:14:52;;;;;;;;;25.00;23.00;;;;;21.89;92.78;98497.03;7698031;22;96841;-62
2023/06/09 02:17:56;;;;;;;;;28.00;22.60;;;;;21.90;92.35;98490.44;7698217;22;96269;-62
2023/06/09 02:20:59;;;;;;;;;25.00;22.00;;;;;21.83;92.62;98479.06;7696110;22;96300;-62
2023/06/09 02:24:04;;;;;;;;;25.00;22.00;;;;;21.92;92.83;98499.19;7698053;22;96468;-61
2023/06/09 02:27:08;;;;;;;;;21.00;20.00;;;;;21.91;92.88;98499.47;7697707;22;97540;-61
2023/06/09 02:30:13;;;;;;;;;24.60;21.20;;;;;21.78;92.97;98481.09;7696295;22;96392;-61
2023/06/09 02:33:18;;;;;;;;;22.40;20.60;;;;;21.88;92.48;98495.44;7721975;22;96336;-62
2023/06/09 02:36:21;;;;;;;;;27.50;22.50;;;;;21.90;92.26;98495.91;7696276;22;96383;-62
2023/06/09 02:39:25;;;;;;;;;26.80;22.40;;;;;21.87;92.79;98476.50;7697974;22;96186;-61
2023/06/09 02:42:28;;;;;;;;;25.00;22.20;;;;;21.94;92.12;98494.22;7697739;22;96195;-61
2023/06/09 02:45:33;;;;;;;;;25.00;19.00;;;;;21.94;92.14;98499.72;7697032;22;96399;-62
2023/06/09 02:48:37;;;;;;;;;26.60;23.00;;;;;21.89;92.39;98501.72;7696341;22;96363;-61
2023/06/09 02:51:40;;;;;;;;;21.40;20.40;;;;;21.89;92.12;98502.53;7694895;22;96560;-61
2023/06/09 02:54:47;;;;;;;;;22.00;20.00;;;;;21.88;92.46;98494.63;7694803;22;96393;-62
2023/06/09 02:57:50;;;;;;;;;23.20;22.00;;;;;21.85;92.81;98504.25;7696164;22;96285;-61
2023/06/09 03:00:58;;;;;;;;;23.60;21.00;;;;;21.92;92.95;98512.91;7694817;22;97433;-62
2023/06/09 03:04:06;;;;;;;;;24.00;23.00;;;;;21.91;92.78;98505.78;7643997;22;98723;-61
2023/06/09 03:07:14;;;;;;;;;25.40;21.00;;;;;21.95;93.18;98512.31;7669101;22;96390;-62
2023/06/09 03:10:19;;;;;;;;;23.00;21.00;;;;;21.87;93.16;98503.97;7669995;22;98345;-62
2023/06/09 03:13:24;;;;;;;;;30.00;22.40;;;;;21.92;93.43;98509.34;7671291;22;96590;-61
2023/06/09 03:16:30;;;;;;;;;28.40;23.00;;;;;21.90;93.05;98514.31;7670832;22;96613;-62
2023/06/09 03:19:34;;;;;;;;;27.00;21.40;;;;;21.95;92.61;98515.06;7696039;22;96448;-62
2023/06/09 03:22:39;;;;;;;;;23.00;20.20;;;;;21.93;93.12;98520.06;7667939;22;96407;-62
2023/06/09 03:25:43;;;;;;;;;24.00;22.00;;;;;21.96;92.94;98529.59;7668241;22;96860;-61
2023/06/09 03:28:51;;;;;;;;;21.00;20.00;;;;;21.89;93.05;98535.44;7668188;22;97324;-61
2023/06/09 03:31:56;;;;;;;;;21.20;19.20;;;;;21.79;93.83;98534.84;7668243;22;96546;-61
2023/06/09 03:35:00;;;;;;;;;20.00;18.20;;;;;21.83;93.83;98544.09;7668093;22;96727;-62
2023/06/09 03:38:05;;;;;;;;;21.33;20.00;;;;;21.84;94.02;98543.00;7668861;22;96374;-62
2023/06/09 03:41:09;;;;;;;;;20.25;19.00;;;;;21.88;94.36;98538.53;7669377;22;96264;-62
2023/06/09 03:44:12;;;;;;;;;21.00;18.60;;;;;21.90;94.28;98541.75;7669028;22;96309;-62
2023/06/09 03:47:18;;;;;;;;;23.00;20.00;;;;;21.92;94.32;98543.09;7668291;22;96988;-61
2023/06/09 03:50:22;;;;;;;;;24.00;20.20;;;;;21.96;94.54;98548.81;7695031;22;96308;-62
2023/06/09 03:53:25;;;;;;;;;19.75;18.00;;;;;21.96;94.17;98546.88;7667981;22;96396;-61
2023/06/09 03:56:29;;;;;;;;;21.00;18.00;;;;;22.00;94.09;98555.31;7668185;22;96316;-62
2023/06/09 03:59:33;;;;;;;;;18.20;16.00;;;;;22.04;93.31;98548.09;7694200;22;96322;-61
2023/06/09 04:02:38;;;;;;;;;17.75;16.00;;;;;22.03;93.60;98546.50;7680240;22;96323;-59
2023/06/09 04:05:41;;;;;;;;;22.25;20.25;;;;;22.02;93.78;98559.41;7697191;22;96268;-58
2023/06/09 04:08:46;;;;;;;;;23.00;19.40;;;;;22.05;93.79;98555.22;7696639;22;96209;-60
2023/06/09 04:11:49;;;;;;;;;21.20;18.80;;;;;22.02;93.96;98545.69;7697365;22;96534;-59
2023/06/09 04:14:53;;;;;;;;;22.00;20.00;;;;;22.03;94.19;98552.00;7697646;22;96842;-59
2023/06/09 04:17:58;;;;;;;;;20.00;19.00;;;;;22.06;94.09;98551.38;7700424;22;96213;-59
2023/06/09 04:21:06;;;;;;;;;26.50;21.50;;;;;22.04;94.31;98553.59;7698238;22;96592;-59
2023/06/09 04:24:10;;;;;;;;;22.40;20.00;;;;;22.06;94.64;98553.28;7698225;22;97284;-59
2023/06/09 04:27:19;;;;;;;;;20.00;18.00;;;;;22.04;94.82;98556.34;7698551;22;96194;-58
2023/06/09 04:30:26;;;;;;;;;23.00;21.00;;;;;21.91;94.71;98535.97;7697925;22;96210;-59
2023/06/09 04:33:32;;;;;;;;;25.40;22.00;;;;;22.06;94.75;98559.59;7697944;22;96288;-59
2023/06/09 04:36:38;;;;;;;;;23.00;20.75;;;;;22.00;94.94;98533.38;7724031;22;96444;-59
2023/06/09 04:39:47;;;;;;;;;25.40;22.60;;;;;22.17;94.70;98549.25;7698151;22;96286;-58
2023/06/09 04:42:58;;;;;;;;;26.00;22.00;;;;;22.24;94.51;98550.44;7697277;22;98162;-59
2023/06/09 04:46:05;;;;;;;;;26.00;23.60;;;;;22.30;93.81;98551.97;7698632;22;96490;-58
2023/06/09 04:49:11;;;;;;;;;28.60;25.00;;;;;22.31;93.84;98547.28;7698415;22;97655;-58
2023/06/09 04:52:17;;;;;;;;;27.00;23.00;;;;;22.29;93.43;98553.09;7698037;22;97184;-59
2023/06/09 04:55:26;;;;;;;;;28.00;23.00;;;;;22.30;93.10;98549.22;7698060;22;96275;-59
2023/06/09 04:58:31;;;;;;;;;29.00;26.00;;;;;22.35;93.67;98543.63;7698103;22;96280;-59
2023/06/09 05:01:37;;;;;;;;;26.00;24.40;;;;;22.39;93.24;98544.63;7696395;22;96893;-60
2023/06/09 05:04:41;;;;;;;;;28.60;23.60;;;;;22.41;93.02;98552.56;7671570;22;96567;-59
2023/06/09 05:07:45;;;;;;;;;24.00;22.60;;;;;22.46;92.90;98552.47;7670981;22;98276;-59
2023/06/09 05:10:49;;;;;;;;;26.75;24.00;;;;;22.52;92.53;98553.19;7699345;22;96914;-59
2023/06/09 05:13:53;;;;;;;;;22.50;19.00;;;;;22.48;92.66;98552.19;7699478;22;96308;-61
2023/06/09 05:16:56;;;;;;;;;25.00;23.00;;;;;22.42;93.02;98565.19;7671837;22;96928;-59
2023/06/09 05:20:05;;;;;;;;;30.00;22.00;;;;;22.46;92.94;98555.22;7672384;22;96424;-59
2023/06/09 05:23:10;;;;;;;;;23.80;21.80;;;;;22.51;92.94;98554.28;7646364;22;96811;-59
2023/06/09 05:26:15;;;;;;;;;19.50;18.00;;;;;22.52;92.31;98540.25;7669283;22;96322;-59
2023/06/09 05:29:18;;;;;;;;;20.80;18.80;;;;;22.61;91.91;98556.81;7695296;22;96154;-59
2023/06/09 05:32:22;;;;;;;;;24.00;19.60;;;;;22.56;91.90;98554.19;7669138;22;96366;-59
2023/06/09 05:35:27;;;;;;;;;22.67;20.67;;;;;22.56;91.72;98549.50;7670342;22;96339;-59
2023/06/09 05:38:31;;;;;;;;;24.50;21.00;;;;;22.62;91.93;98547.47;7669882;22;96325;-59
2023/06/09 05:41:34;;;;;;;;;23.75;18.75;;;;;22.68;92.03;98552.53;7699741;22;96598;-59
2023/06/09 05:44:38;;;;;;;;;26.80;21.80;;;;;22.68;91.90;98541.53;7700279;22;96217;-61
2023/06/09 05:47:41;;;;;;;;;22.00;17.60;;;;;22.80;91.59;98543.78;7698791;22;96349;-59
2023/06/09 05:50:47;;;;;;;;;19.60;17.00;;;;;22.79;90.76;98551.22;7699822;22;96275;-58
2023/06/09 05:53:50;;;;;;;;;20.60;16.60;;;;;22.82;90.60;98536.06;7699644;22;97585;-59
2023/06/09 05:56:54;;;;;;;;;20.00;17.60;;;;;22.73;91.00;98546.94;7698307;22;96477;-60
2023/06/09 05:59:57;;;;;;;;;21.40;18.60;;;;;22.81;91.12;98556.41;7699157;22;96195;-58
2023/06/09 06:03:01;;;;;;;;;18.25;17.25;;;;;22.87;91.33;98544.19;7698708;22;96179;-62
2023/06/09 06:06:06;;;;;;;;;19.80;17.00;;;;;22.97;90.83;98545.88;7696681;22;96181;-61
2023/06/09 06:09:09;;;;;;;;;19.40;16.00;;;;;23.06;90.44;98555.00;7696059;22;96391;-62
2023/06/09 06:12:13;;;;;;;;;21.80;17.80;;;;;23.05;90.25;98559.69;7697738;22;96806;-62
2023/06/09 06:15:17;;;;;;;;;22.40;19.00;;;;;23.09;89.74;98559.88;7697582;22;96202;-62
2023/06/09 06:18:21;;;;;;;;;24.20;20.60;;;;;23.14;89.60;98566.06;7696300;22;96336;-61
2023/06/09 06:21:26;;;;;;;;;21.60;20.00;;;;;23.14;89.43;98559.75;7669814;22;98825;-61
2023/06/09 06:24:30;;;;;;;;;21.00;18.20;;;;;23.31;89.10;98568.16;7697746;22;97465;-61
2023/06/09 06:27:33;;;;;;;;;17.60;16.00;;;;;23.25;88.10;98578.47;7668011;22;96600;-62
2023/06/09 06:30:37;;;;;;;;;22.00;17.00;;;;;23.22;87.64;98564.50;7696883;22;96896;-62
2023/06/09 06:33:41;;;;;;;;;22.00;18.00;;;;;23.16;88.65;98574.84;7697338;22;96219;-62
2023/06/09 06:36:45;;;;;;;;;21.00;18.60;;;;;23.21;88.66;98577.44;7697937;22;96149;-61
2023/06/09 06:39:49;;;;;;;;;18.40;16.40;;;;;23.42;88.09;98585.19;7697420;22;96204;-61
2023/06/09 06:42:52;;;;;;;;;20.00;17.00;;;;;23.57;87.24;98580.16;7697921;22;96426;-61
2023/06/09 06:46:06;;;;;;;;;18.40;16.00;;;;;23.65;85.58;98584.13;7670916;22;96545;-62
2023/06/09 06:49:09;;;;;;;;;18.00;16.00;;;;;23.78;85.09;98574.97;7671246;22;96530;-61
2023/06/09 06:52:14;;;;;;;;;17.75;16.00;;;;;23.95;84.89;98577.78;7697697;22;96157;-61
2023/06/09 06:55:18;;;;;;;;;21.80;17.80;;;;;24.09;83.33;98573.00;7698373;22;96184;-62
2023/06/09 06:58:21;;;;;;;;;21.60;18.20;;;;;24.16;82.27;98572.53;7670591;22;98790;-61
2023/06/09 07:01:25;;;;;;;;;15.40;14.00;;;;;24.13;81.19;98568.50;7669775;22;97491;-61
2023/06/09 07:04:29;;;;;;;;;20.00;19.00;;;;;24.25;81.10;98569.84;7696956;22;96979;-61
2023/06/09 07:07:34;;;;;;;;;20.75;16.75;;;;;24.23;80.99;98574.88;7696725;22;96297;-61
2023/06/09 07:10:37;;;;;;;;;20.40;17.20;;;;;24.29;80.98;98571.63;7669815;22;96619;-61
2023/06/09 07:13:40;;;;;;;;;18.00;17.20;;;;;24.23;80.43;98572.94;7697468;22;96841;-62
2023/06/09 07:16:45;;;;;;;;;21.60;18.60;;;;;24.19;81.39;98574.69;7696096;22;96269;-62
2023/06/09 07:19:49;;;;;;;;;23.00;21.60;;;;;24.14;81.08;98575.59;7696655;22;97022;-62
2023/06/09 07:22:54;;;;;;;;;23.00;20.00;;;;;24.15;81.60;98571.72;7696001;22;96278;-62
2023/06/09 07:25:57;;;;;;;;;24.60;22.60;;;;;24.10;81.63;98573.81;7695221;22;96504;-62
2023/06/09 07:29:01;;;;;;;;;25.40;21.00;;;;;24.34;81.39;98570.69;7694563;22;96261;-62
2023/06/09 07:32:05;;;;;;;;;23.00;20.00;;;;;24.59;80.79;98569.94;7694287;22;96379;-62
2023/06/09 07:35:12;;;;;;;;;23.50;21.00;;;;;24.82;78.53;98560.44;7668402;22;96604;-62
2023/06/09 07:38:20;;;;;;;;;25.00;21.00;;;;;25.21;76.43;98556.75;7670212;22;96137;-62
2023/06/09 07:41:24;;;;;;;;;25.40;20.40;;;;;25.63;72.68;98557.03;7697065;22;97125;-62
2023/06/09 07:44:27;;;;;;;;;22.60;20.00;;;;;26.03;68.77;98554.81;7668300;22;96676;-62
2023/06/09 07:47:31;;;;;;;;;23.00;21.00;;;;;26.34;66.56;98555.31;7641072;22;96575;-62
2023/06/09 07:50:34;;;;;;;;;22.25;20.25;;;;;26.27;66.10;98555.06;7670531;22;96547;-62
2023/06/09 07:53:59;;;;;;;;;17.75;16.00;;;;;26.28;63.32;98553.91;7645648;22;96286;-62
2023/06/09 07:57:02;;;;;;;;;19.00;18.00;;;;;26.32;64.01;98549.34;7698189;22;96811;-61
2023/06/09 08:00:07;;;;;;;;;21.00;19.40;;;;;26.45;62.82;98551.06;7696594;22;96206;-62
2023/06/09 08:03:14;;;;;;;;;21.00;19.00;;;;;26.62;61.43;98537.13;7698737;22;96372;-62
2023/06/09 08:06:17;;;;;;;;;18.00;16.00;;;;;27.03;61.27;98543.84;7698029;22;96235;-62
2023/06/09 08:09:22;;;;;;;;;16.75;16.75;;;;;27.53;59.21;98541.78;7670484;22;96594;-62
2023/06/09 08:12:26;;;;;;;;;17.00;17.00;;;;;27.47;56.18;98542.31;7669351;22;98297;-63
2023/06/09 08:15:30;;;;;;;;;16.80;14.80;;;;;27.78;56.86;98534.38;7698757;22;96313;-62
2023/06/09 08:18:34;;;;;;;;;18.00;16.75;;;;;27.82;54.41;98529.75;7697957;22;96214;-62
2023/06/09 08:21:42;;;;;;;;;15.60;14.60;;;;;27.91;56.36;98524.09;7670885;22;96420;-62
2023/06/09 08:24:47;;;;;;;;;17.25;16.00;;;;;28.42;53.40;98526.25;7670960;22;97607;-62
2023/06/09 08:27:51;;;;;;;;;16.00;14.80;;;;;28.32;51.64;98521.16;7698914;22;96188;-62
2023/06/09 08:30:55;;;;;;;;;17.00;15.80;;;;;28.90;52.68;98510.69;7698141;22;96975;-62
2023/06/09 08:33:58;;;;;;;;;15.60;13.60;;;;;29.24;49.23;98509.28;7696274;22;96304;-62
2023/06/09 08:37:03;;;;;;;;;15.50;14.00;;;;;29.50;49.37;98509.69;7696341;22;96220;-62
2023/06/09 08:40:09;;;;;;;;;18.40;16.60;;;;;29.78;48.81;98504.06;7698702;22;96959;-62
2023/06/09 08:43:13;;;;;;;;;17.00;16.00;;;;;30.07;47.64;98502.84;7670509;22;98427;-62
2023/06/09 08:46:19;;;;;;;;;17.40;16.00;;;;;29.99;45.39;98501.88;7644786;22;98264;-63
2023/06/09 08:49:23;;;;;;;;;18.00;16.40;;;;;30.02;46.37;98511.44;7670225;22;97721;-63
2023/06/09 08:52:28;;;;;;;;;16.60;15.00;;;;;29.89;46.67;98496.84;7695397;22;96362;-62
2023/06/09 08:55:34;;;;;;;;;18.00;17.00;;;;;30.15;46.01;98495.50;7668827;22;96210;-62
2023/06/09 08:58:41;;;;;;;;;15.67;14.67;;;;;30.31;44.57;98491.50;7667501;22;96883;-62
2023/06/09 09:01:48;;;;;;;;;18.00;17.20;;;;;30.43;44.58;98493.38;7643186;22;98327;-62
2023/06/09 09:04:53;;;;;;;;;17.60;16.00;;;;;30.80;44.33;98502.19;7644103;22;99033;-62
2023/06/09 09:07:57;;;;;;;;;17.25;16.25;;;;;30.84;43.36;98494.72;7696431;22;96342;-62
2023/06/09 09:11:02;;;;;;;;;14.60;14.20;;;;;31.07;42.67;98506.78;7697501;22;97315;-62
2023/06/09 09:14:10;;;;;;;;;16.80;15.80;;;;;31.40;42.90;98490.34;7670481;22;96058;-62
2023/06/09 09:17:15;;;;;;;;;17.60;16.00;;;;;31.53;42.38;98482.63;7670110;22;98304;-63
2023/06/09 09:20:19;;;;;;;;;17.00;17.00;;;;;31.45;41.73;98500.38;7670745;22;96794;-62
2023/06/09 09:23:30;;;;;;;;;16.40;15.00;;;;;31.24;42.16;98483.25;7694820;22;96286;-62
2023/06/09 09:26:35;;;;;;;;;17.00;16.00;;;;;31.36;42.98;98475.56;7667044;22;99842;-62
2023/06/09 09:29:41;;;;;;;;;15.00;14.50;;;;;31.45;41.34;98463.38;7668577;22;100545;-62
2023/06/09 09:32:45;;;;;;;;;15.00;15.00;;;;;31.78;42.62;98469.16;7668609;22;96576;-63
2023/06/09 09:35:50;;;;;;;;;13.20;13.00;;;;;32.28;40.49;98476.41;7696300;22;96710;-62
2023/06/09 09:38:56;;;;;;;;;18.75;16.75;;;;;31.85;39.56;98462.91;7697618;22;96584;-62
2023/06/09 09:42:07;;;;;;;;;16.00;15.40;;;;;32.14;40.56;98465.03;7697491;22;96480;-63
2023/06/09 09:45:11;;;;;;;;;15.00;14.00;;;;;32.15;39.10;98472.22;7669243;22;96976;-63
2023/06/09 09:48:17;;;;;;;;;12.40;11.20;;;;;32.13;39.60;98475.38;7695194;22;96337;-62
2023/06/09 09:51:21;;;;;;;;;15.00;14.40;;;;;32.16;39.98;98459.84;7694930;22;96476;-63
2023/06/09 09:54:27;;;;;;;;;15.25;14.75;;;;;31.80;39.58;98450.91;7697425;22;96176;-63
2023/06/09 09:57:33;;;;;;;;;18.00;16.00;;;;;31.62;41.35;98449.78;7698303;22;98049;-62
2023/06/09 10:00:39;;;;;;;;;16.00;16.00;;;;;31.33;42.10;98442.84;7698690;22;96098;-62
2023/06/09 10:03:45;;;;;;;;;13.60;13.00;;;;;31.56;41.32;98444.88;7693138;22;100380;-62
2023/06/09 10:06:53;;;;;;;;;15.67;13.00;;;;;32.28;41.16;98436.53;7698759;22;96326;-63
2023/06/09 10:09:57;;;;;;;;;16.40;14.80;;;;;32.75;39.19;98431.25;7698706;22;96135;-62
2023/06/09 10:13:03;;;;;;;;;15.00;14.00;;;;;32.78;37.19;98435.28;7697240;22;96347;-62
2023/06/09 10:16:11;;;;;;;;;16.60;15.00;;;;;32.72;38.31;98432.00;7698672;22;97471;-62
2023/06/09 10:19:16;;;;;;;;;15.00;14.00;;;;;32.62;37.39;98438.22;7697838;22;96338;-63
2023/06/09 10:22:19;;;;;;;;;14.00;13.40;;;;;32.35;38.29;98426.31;7696055;22;96682;-62
2023/06/09 10:25:26;;;;;;;;;12.00;12.00;;;;;32.55;38.35;98419.38;7697601;22;96722;-63
2023/06/09 10:28:30;;;;;;;;;13.00;13.00;;;;;32.35;37.39;98415.16;7696973;22;96194;-63
2023/06/09 10:31:36;;;;;;;;;13.00;12.00;;;;;32.60;38.42;98410.69;7695386;22;96680;-62
2023/06/09 10:34:47;;;;;;;;;15.00;13.50;;;;;32.88;37.97;98426.22;7698182;22;96204;-62
2023/06/09 10:37:51;;;;;;;;;15.50;15.25;;;;;32.61;36.27;98426.25;7698651;22;96311;-63
2023/06/09 10:41:09;;;;;;;;;15.40;14.40;;;;;32.57;36.20;98419.81;7698216;22;96244;-63
2023/06/09 10:44:36;;;;;;;;;11.00;11.00;;;;;32.12;37.00;98390.09;7722411;22;96090;-62
2023/06/09 10:47:44;;;;;;;;;13.00;12.00;;;;;32.07;36.49;98421.06;7698271;22;96390;-63
2023/06/09 10:50:49;;;;;;;;;11.60;11.40;;;;;31.83;37.85;98421.47;7695672;22;97034;-64
2023/06/09 10:54:27;;;;;;;;;13.00;12.75;;;;;31.66;37.87;98422.78;7693460;22;96540;-63
2023/06/09 10:57:38;;;;;;;;;12.50;11.50;;;;;30.72;39.41;98440.00;7686495;22;99466;-64
2023/06/09 11:01:07;;;;;;;;;14.00;11.80;;;;;30.59;41.02;98427.41;7668425;22;96834;-63
2023/06/09 11:04:44;;;;;;;;;13.00;12.00;;;;;30.47;40.28;98433.91;7694938;22;97372;-63
2023/06/09 11:07:51;;;;;;;;;13.20;12.20;;;;;30.32;41.36;98433.91;7694942;22;96426;-63
2023/06/09 11:10:54;;;;;;;;;16.00;15.00;;;;;29.95;41.61;98430.69;7694088;22;96796;-63
2023/06/09 11:13:58;;;;;;;;;14.40;14.00;;;;;29.88;42.54;98416.56;7698011;22;97064;-63
2023/06/09 11:17:17;;;;;;;;;15.40;14.40;;;;;30.01;43.07;98420.88;7696937;22;96438;-62
2023/06/09 11:20:23;;;;;;;;;11.40;10.60;;;;;29.74;41.62;98419.81;7689594;22;98167;-63
2023/06/09 11:23:26;;;;;;;;;16.40;16.40;;;;;29.97;42.89;98423.56;7694610;22;96606;-63
2023/06/09 11:26:34;;;;;;;;;15.60;15.00;;;;;29.82;42.53;98426.34;7694360;22;96542;-63
2023/06/09 11:29:38;;;;;;;;;13.00;12.00;;;;;29.62;43.48;98422.66;7696671;22;96426;-63
2023/06/09 11:32:46;;;;;;;;;13.00;12.20;;;;;29.75;43.11;98428.94;7696547;22;96491;-64
2023/06/09 11:35:50;;;;;;;;;13.00;13.00;;;;;29.79;43.12;98429.84;7697394;22;96209;-63
2023/06/09 11:38:53;;;;;;;;;14.50;13.00;;;;;29.85;43.19;98429.22;7695488;22;98437;-63
2023/06/09 11:41:57;;;;;;;;;13.00;12.00;;;;;29.48;43.25;98413.97;7697643;22;96794;-63
2023/06/09 11:45:01;;;;;;;;;14.00;12.75;;;;;29.58;42.65;98411.47;7695159;22;96672;-63
2023/06/09 11:48:08;;;;;;;;;14.40;14.40;;;;;29.63;43.34;98410.38;7696248;22;96768;-63
2023/06/09 11:51:11;;;;;;;;;16.00;15.60;;;;;29.46;44.26;98416.31;7697444;22;96606;-63
2023/06/09 11:54:15;;;;;;;;;15.00;14.00;;;;;29.02;45.82;98413.53;7697708;22;96202;-63
2023/06/09 11:57:18;;;;;;;;;15.25;14.25;;;;;28.99;45.87;98403.13;7696268;22;96270;-63
2023/06/09 12:00:26;;;;;;;;;17.40;15.40;;;;;29.32;46.17;98407.63;7697779;22;96335;-64
2023/06/09 12:03:36;;;;;;;;;19.40;18.40;;;;;28.75;46.44;98412.34;7697163;22;96724;-63
2023/06/09 12:06:39;;;;;;;;;19.00;17.50;;;;;28.43;48.18;98405.06;7697146;22;96239;-63
2023/06/09 12:09:43;;;;;;;;;19.80;19.20;;;;;28.14;49.08;98397.84;7697499;22;96284;-64
2023/06/09 12:12:48;;;;;;;;;19.00;17.00;;;;;27.98;49.85;98388.56;7697101;22;96436;-63
2023/06/09 12:15:52;;;;;;;;;19.00;17.25;;;;;28.07;50.32;98383.72;7697541;22;97515;-63
2023/06/09 12:18:57;;;;;;;;;17.75;17.00;;;;;28.17;50.73;98388.81;7697191;22;96191;-63
2023/06/09 12:22:02;;;;;;;;;19.00;18.00;;;;;28.16;50.68;98383.59;7697202;22;96560;-63
2023/06/09 12:25:19;;;;;;;;;20.00;18.00;;;;;27.91;50.67;98361.44;7696720;22;97056;-63
2023/06/09 12:28:26;;;;;;;;;15.00;15.00;;;;;27.50;50.94;98375.56;7697140;22;96692;-63
2023/06/09 12:31:29;;;;;;;;;15.00;14.00;;;;;27.69;51.16;98374.97;7696836;22;96648;-63
2023/06/09 12:34:34;;;;;;;;;16.40;15.00;;;;;27.73;51.36;98381.44;7697026;22;96835;-63
2023/06/09 12:37:38;;;;;;;;;18.40;16.00;;;;;27.67;51.93;98374.50;7698843;22;96991;-63
2023/06/09 12:40:50;;;;;;;;;16.20;16.00;;;;;27.64;52.52;98386.28;7671620;22;99042;-63
2023/06/09 12:43:55;;;;;;;;;22.40;19.00;;;;;27.58;53.52;98386.50;7698921;22;96466;-63
2023/06/09 12:46:59;;;;;;;;;19.75;18.75;;;;;27.61;54.20;98395.28;7698816;22;96347;-63
2023/06/09 12:50:13;;;;;;;;;18.40;17.20;;;;;27.42;54.67;98396.59;7698247;22;96862;-63
2023/06/09 12:53:16;;;;;;;;;19.40;17.40;;;;;27.15;55.40;98395.31;7698354;22;96446;-63
2023/06/09 12:56:20;;;;;;;;;22.20;21.60;;;;;27.25;55.14;98398.78;7698422;22;96243;-63
2023/06/09 12:59:23;;;;;;;;;20.80;20.40;;;;;26.92;56.38;98390.50;7698743;22;96339;-63
2023/06/09 13:02:26;;;;;;;;;23.00;20.00;;;;;27.02;56.45;98385.34;7696709;22;96601;-63
2023/06/09 13:05:32;;;;;;;;;20.00;17.40;;;;;26.95;57.36;98378.75;7697703;22;96465;-63
2023/06/09 13:08:36;;;;;;;;;22.40;19.00;;;;;27.00;56.83;98376.59;7696143;22;96494;-64
2023/06/09 13:11:40;;;;;;;;;17.20;15.40;;;;;27.06;56.73;98374.41;7671364;22;98294;-63
2023/06/09 13:14:43;;;;;;;;;23.00;20.00;;;;;27.17;57.18;98364.53;7698282;22;96976;-63
2023/06/09 13:17:46;;;;;;;;;23.40;21.60;;;;;27.27;57.49;98368.81;7697867;22;96354;-63
2023/06/09 13:20:52;;;;;;;;;15.00;13.80;;;;;27.14;53.83;98357.69;7698399;22;96051;-63
2023/06/09 13:23:55;;;;;;;;;12.60;12.40;;;;;27.20;53.95;98352.75;7668747;22;96762;-63
2023/06/09 13:26:58;;;;;;;;;12.00;11.20;;;;;27.17;52.78;98345.94;7666425;22;96486;-63
2023/06/09 13:30:02;;;;;;;;;15.40;14.00;;;;;27.20;52.35;98336.16;7693938;22;96414;-63
2023/06/09 13:33:06;;;;;;;;;13.60;13.00;;;;;27.07;52.50;98317.94;7696373;22;96408;-63
2023/06/09 13:36:12;;;;;;;;;12.75;12.00;;;;;27.19;52.12;98330.97;7695538;22;96379;-63
2023/06/09 13:39:15;;;;;;;;;15.00;13.00;;;;;27.36;52.96;98325.22;7697707;22;96468;-63
2023/06/09 13:42:19;;;;;;;;;15.00;14.00;;;;;27.37;52.04;98304.66;7698805;22;96198;-63
2023/06/09 13:45:24;;;;;;;;;16.00;15.00;;;;;27.47;52.59;98318.84;7698723;22;96325;-63
2023/06/09 13:48:28;;;;;;;;;18.60;18.00;;;;;27.49;52.56;98318.56;7697990;22;96323;-63
2023/06/09 13:51:34;;;;;;;;;14.60;14.00;;;;;27.36;53.26;98309.41;7697913;22;96375;-63
2023/06/09 13:54:37;;;;;;;;;13.00;12.00;;;;;27.37;52.69;98304.66;7697951;22;97016;-64
2023/06/09 13:57:42;;;;;;;;;14.00;12.00;;;;;27.21;53.30;98321.19;7645757;22;96883;-63
2023/06/09 14:00:46;;;;;;;;;11.75;10.00;;;;;27.16;52.55;98315.88;7696123;22;96449;-63
2023/06/09 14:03:49;;;;;;;;;7.80;7.00;;;;;26.97;52.43;98329.44;7697331;22;96304;-63
2023/06/09 14:06:55;;;;;;;;;9.00;9.00;;;;;26.97;49.99;98337.75;7645557;22;100160;-63
2023/06/09 14:09:58;;;;;;;;;5.00;5.00;;;;;26.99;50.22;98341.75;7670650;22;96603;-63
2023/06/09 14:13:02;;;;;;;;;7.00;6.40;;;;;27.00;50.89;98346.16;7670198;22;98260;-63